createdAt,value
2023-03-10T00:00:44.031Z,93950.13
2023-03-10T00:05:56.453Z,93936.56
2023-03-10T00:11:00.621Z,93922.03
2023-03-10T00:16:05.586Z,93914.72
2023-03-10T00:21:08.324Z,93912.59
2023-03-10T00:26:10.666Z,93897.94
2023-03-10T00:31:13.366Z,93895.84
2023-03-10T00:36:17.556Z,93892.06
2023-03-10T00:41:20.723Z,93881.84
2023-03-10T00:46:34.303Z,93875.72
2023-03-10T00:51:37.451Z,93866.16
2023-03-10T00:56:39.937Z,93864.59
2023-03-10T01:01:42.460Z,93845.28
2023-03-10T01:06:47.424Z,93838.03
2023-03-10T01:11:50.176Z,93828.94
2023-03-10T01:16:52.893Z,93811.25
2023-03-10T01:21:55.967Z,93800.88
2023-03-10T01:27:00.637Z,93794.66
2023-03-10T01:32:03.006Z,93785.59
2023-03-10T01:37:05.821Z,93782.34
2023-03-10T01:42:08.216Z,93763.56
2023-03-10T01:47:11.513Z,93754.94
2023-03-10T01:52:13.817Z,93743.78
2023-03-10T01:57:16.131Z,93734.63
2023-03-10T02:02:19.511Z,93733.19
2023-03-10T02:07:22.756Z,93715.63
2023-03-10T02:12:25.013Z,93704.03
2023-03-10T02:17:37.447Z,93702.16
2023-03-10T02:22:40.262Z,93696.00
2023-03-10T02:27:42.598Z,93681.03
2023-03-10T02:32:45.417Z,93673.13
2023-03-10T02:37:50.723Z,93661.41
2023-03-10T02:42:53.425Z,93652.91
2023-03-10T02:47:56.701Z,93647.38
2023-03-10T02:52:59.456Z,93639.28
2023-03-10T02:58:02.574Z,93639.78
2023-03-10T03:03:05.774Z,93634.13
2023-03-10T03:08:08.178Z,93623.72
2023-03-10T03:13:20.434Z,93615.31
2023-03-10T03:18:33.604Z,93619.72
2023-03-10T03:23:36.524Z,93610.16
2023-03-10T03:28:39.068Z,93613.41
2023-03-10T03:33:42.577Z,93603.34
2023-03-10T03:38:45.001Z,93613.41
2023-03-10T03:43:48.207Z,93627.84
2023-03-10T03:48:51.319Z,93633.06
2023-03-10T03:53:53.746Z,93639.09
2023-03-10T03:58:56.139Z,93655.91
2023-03-10T04:03:58.652Z,93704.13
2023-03-10T04:09:01.071Z,93724.84
2023-03-10T04:14:03.434Z,93719.91
2023-03-10T04:19:07.651Z,93730.09
2023-03-10T04:24:10.187Z,93717.16
2023-03-10T04:29:15.048Z,93719.94
2023-03-10T04:34:17.722Z,93704.78
2023-03-10T04:39:20.439Z,93700.72
2023-03-10T04:44:30.931Z,93699.84
2023-03-10T04:49:33.871Z,93709.38
2023-03-10T04:54:36.656Z,93695.38
2023-03-10T04:59:39.009Z,93708.88
2023-03-10T05:04:42.157Z,93713.06
2023-03-10T05:09:45.610Z,93713.47
2023-03-10T05:14:48.236Z,93715.06
2023-03-10T05:19:50.989Z,93705.81
2023-03-10T05:24:53.958Z,93708.19
2023-03-10T05:29:57.105Z,93705.84
2023-03-10T05:34:59.433Z,93725.34
2023-03-10T05:40:01.904Z,93710.63
2023-03-10T05:45:05.346Z,93718.53
2023-03-10T05:50:08.447Z,93705.59
2023-03-10T05:55:10.748Z,93706.09
2023-03-10T06:00:13.637Z,93707.97
2023-03-10T06:05:25.945Z,93691.47
2023-03-10T06:10:28.303Z,93684.06
2023-03-10T06:15:34.115Z,93681.41
2023-03-10T06:20:36.927Z,93677.41
2023-03-10T06:25:39.211Z,93675.84
2023-03-10T06:30:42.383Z,93668.28
2023-03-10T06:35:44.861Z,93665.25
2023-03-10T06:40:47.193Z,93632.34
2023-03-10T06:45:49.803Z,93626.53
2023-03-10T06:50:52.591Z,93611.28
2023-03-10T06:55:55.866Z,93626.84
2023-03-10T07:00:59.100Z,93614.91
2023-03-10T07:06:11.607Z,93612.53
2023-03-10T07:11:25.298Z,93608.41
2023-03-10T07:16:28.007Z,93586.16
2023-03-10T07:21:32.231Z,93583.25
2023-03-10T07:26:34.863Z,93590.59
2023-03-10T07:31:37.740Z,93607.34
2023-03-10T07:36:40.068Z,93604.84
2023-03-10T07:41:52.406Z,93604.78
2023-03-10T07:46:55.633Z,93601.13
2023-03-10T07:51:59.247Z,93598.53
2023-03-10T07:57:01.750Z,93594.47
2023-03-10T08:02:14.149Z,93589.91
2023-03-10T08:07:17.165Z,93574.63
2023-03-10T08:12:29.485Z,93580.81
2023-03-10T08:17:33.476Z,93566.41
2023-03-10T08:22:36.335Z,93558.22
2023-03-10T08:27:39.017Z,93545.97
2023-03-10T08:32:41.667Z,93539.75
2023-03-10T08:37:44.397Z,93539.22
2023-03-10T08:42:48.489Z,93528.91
2023-03-10T08:47:51.217Z,93528.38
2023-03-10T08:52:53.649Z,93533.94
2023-03-10T08:57:56.042Z,93538.91
2023-03-10T09:02:58.520Z,93542.31
2023-03-10T09:08:01.109Z,93532.16
2023-03-10T09:13:13.731Z,93535.75
2023-03-10T09:18:17.494Z,93541.97
2023-03-10T09:23:29.949Z,93543.31
2023-03-10T09:28:32.654Z,93548.00
2023-03-10T09:33:35.038Z,93555.53
2023-03-10T09:38:37.397Z,93550.78
2023-03-10T09:43:39.734Z,93570.44
2023-03-10T09:48:42.087Z,93560.91
2023-03-10T09:53:48.086Z,93560.66
2023-03-10T09:58:51.878Z,93562.03
2023-03-10T10:03:54.549Z,93583.69
2023-03-10T10:09:04.340Z,93597.78
2023-03-10T10:14:13.142Z,93630.56
2023-03-10T10:19:18.251Z,93651.91
2023-03-10T10:24:21.403Z,93661.22
2023-03-10T10:29:23.732Z,93685.75
2023-03-10T10:34:26.350Z,93683.56
2023-03-10T10:39:31.334Z,93710.91
2023-03-10T10:44:37.627Z,93710.94
2023-03-10T10:49:40.173Z,93704.09
2023-03-10T10:54:43.653Z,93691.94
2023-03-10T10:59:46.370Z,93666.91
2023-03-10T11:04:48.652Z,93657.78
2023-03-10T11:09:51.061Z,93637.91
2023-03-10T11:14:53.387Z,93628.09
2023-03-10T11:19:56.107Z,93617.47
2023-03-10T11:24:58.434Z,93613.97
2023-03-10T11:30:01.707Z,93595.69
2023-03-10T11:35:04.396Z,93591.00
2023-03-10T11:40:07.681Z,93574.16
2023-03-10T11:45:10.206Z,93573.84
2023-03-10T11:50:13.119Z,93563.28
2023-03-10T11:55:15.666Z,93561.41
2023-03-10T12:00:18.819Z,93547.69
2023-03-10T12:05:31.271Z,93542.84
2023-03-10T12:10:42.271Z,93540.16
2023-03-10T12:15:49.667Z,93509.75
2023-03-10T12:20:52.768Z,93500.53
2023-03-10T12:25:55.919Z,93513.00
2023-03-10T12:31:06.708Z,93512.66
2023-03-10T12:36:09.400Z,93515.81
2023-03-10T12:41:15.416Z,93514.28
2023-03-10T12:46:17.896Z,93515.53
2023-03-10T12:51:30.245Z,93508.91
2023-03-10T12:56:36.713Z,93509.47
2023-03-10T13:01:43.269Z,93510.00
2023-03-10T13:06:48.788Z,93521.50
2023-03-10T13:11:51.464Z,93518.25
2023-03-10T13:16:54.543Z,93513.09
2023-03-10T13:21:56.985Z,93524.00
2023-03-10T13:26:59.332Z,93534.97
2023-03-10T13:32:01.730Z,93546.66
2023-03-10T13:37:05.112Z,93555.81
2023-03-10T13:42:07.494Z,93550.16
2023-03-10T13:47:09.923Z,93551.13
2023-03-10T13:52:12.259Z,93563.63
2023-03-10T13:57:14.645Z,93573.78
2023-03-10T14:02:16.977Z,93567.13
2023-03-10T14:07:19.489Z,93573.28
2023-03-10T14:12:24.978Z,93585.72
2023-03-10T14:17:27.809Z,93582.03
2023-03-10T14:22:30.308Z,93581.63
2023-03-10T14:27:33.131Z,93591.59
2023-03-10T14:32:36.404Z,93578.75
2023-03-10T14:37:38.774Z,93584.25
2023-03-10T14:42:41.442Z,93578.38
2023-03-10T14:47:44.074Z,93565.97
2023-03-10T14:52:46.633Z,93565.56
2023-03-10T14:57:48.959Z,93564.28
2023-03-10T15:02:52.126Z,93587.84
2023-03-10T15:07:55.303Z,93607.63
2023-03-10T15:12:57.671Z,93616.94
2023-03-10T15:18:00.052Z,93633.69
2023-03-10T15:23:03.172Z,93625.97
2023-03-10T15:28:08.757Z,93624.69
2023-03-10T15:33:11.895Z,93624.22
2023-03-10T15:38:14.253Z,93657.31
2023-03-10T15:43:17.388Z,93665.78
2023-03-10T15:48:20.796Z,93652.75
2023-03-10T15:53:24.328Z,93646.66
2023-03-10T15:58:27.019Z,93662.50
2023-03-10T16:03:30.928Z,93681.28
2023-03-10T16:08:37.393Z,93690.25
2023-03-10T16:13:39.864Z,93687.84
2023-03-10T16:18:42.616Z,93679.22
2023-03-10T16:23:45.019Z,93689.56
2023-03-10T16:28:47.341Z,93687.41
2023-03-10T16:33:50.595Z,93694.53
2023-03-10T16:38:53.444Z,93698.06
2023-03-10T16:43:56.168Z,93697.00
2023-03-10T16:48:58.501Z,93710.84
2023-03-10T16:54:00.837Z,93710.38
2023-03-10T16:59:13.211Z,93713.97
2023-03-10T17:04:16.003Z,93701.38
2023-03-10T17:09:19.097Z,93703.41
2023-03-10T17:14:21.456Z,93710.09
2023-03-10T17:19:28.645Z,93726.72
2023-03-10T17:24:31.350Z,93710.94
2023-03-10T17:29:34.508Z,93731.44
2023-03-10T17:34:36.902Z,93750.94
2023-03-10T17:39:40.659Z,93763.50
2023-03-10T17:44:43.762Z,93774.09
2023-03-10T17:49:46.182Z,93811.19
2023-03-10T17:54:49.030Z,93797.28
2023-03-10T17:59:51.791Z,93819.97
2023-03-10T18:04:54.116Z,93824.91
2023-03-10T18:09:58.277Z,93819.16
2023-03-10T18:15:01.071Z,93812.56
2023-03-10T18:20:06.554Z,93815.41
2023-03-10T18:25:10.413Z,93806.69
2023-03-10T18:30:12.961Z,93814.84
2023-03-10T18:35:18.102Z,93830.94
2023-03-10T18:40:21.270Z,93831.66
2023-03-10T18:45:23.703Z,93810.06
2023-03-10T18:50:26.789Z,93831.75
2023-03-10T18:55:29.381Z,93856.16
2023-03-10T19:00:33.385Z,93916.25
2023-03-10T19:05:36.508Z,93893.41
2023-03-10T19:10:40.158Z,93880.88
2023-03-10T19:15:44.598Z,93857.56
2023-03-10T19:20:47.088Z,93842.13
2023-03-10T19:25:49.432Z,93873.13
2023-03-10T19:30:51.821Z,93881.94
2023-03-10T19:35:56.097Z,93846.19
2023-03-10T19:40:58.561Z,93855.38
2023-03-10T19:46:01.761Z,93846.50
2023-03-10T19:51:05.565Z,93826.19
2023-03-10T19:56:10.098Z,93821.19
2023-03-10T20:01:13.376Z,93836.09
2023-03-10T20:06:15.924Z,93821.13
2023-03-10T20:11:19.725Z,93834.16
2023-03-10T20:16:24.337Z,93840.22
2023-03-10T20:21:27.826Z,93788.22
2023-03-10T20:26:30.644Z,93813.44
2023-03-10T20:31:34.431Z,93805.50
2023-03-10T20:36:39.704Z,93812.34
2023-03-10T20:41:44.545Z,93828.16
2023-03-10T20:46:47.739Z,93855.41
2023-03-10T20:51:50.019Z,93846.75
2023-03-10T20:56:53.812Z,93846.41
2023-03-10T21:01:56.137Z,93859.22
2023-03-10T21:06:58.547Z,93855.56
2023-03-10T21:12:01.759Z,93903.94
2023-03-10T21:17:05.310Z,93938.78
2023-03-10T21:22:08.179Z,93942.56
2023-03-10T21:27:11.297Z,93948.50
2023-03-10T21:32:14.056Z,93951.50
2023-03-10T21:37:17.276Z,93984.66
2023-03-10T21:42:20.237Z,93998.56
2023-03-10T21:47:23.708Z,94029.66
2023-03-10T21:52:27.570Z,94038.19
2023-03-10T21:57:30.077Z,94053.84
2023-03-10T22:02:35.549Z,94054.94
2023-03-10T22:07:38.548Z,94070.09
2023-03-10T22:12:40.936Z,94076.69
2023-03-10T22:17:43.254Z,94087.31
2023-03-10T22:22:46.353Z,94075.13
2023-03-10T22:27:48.693Z,94103.84
2023-03-10T22:32:51.865Z,94116.84
2023-03-10T22:37:55.197Z,94195.75
2023-03-10T22:42:57.910Z,94179.81
2023-03-10T22:48:01.203Z,94171.75
2023-03-10T22:53:13.927Z,94164.63
2023-03-10T22:58:16.729Z,94163.22
2023-03-10T23:03:19.910Z,94174.44
2023-03-10T23:08:22.320Z,94179.47
2023-03-10T23:13:25.403Z,94212.38
2023-03-10T23:18:37.689Z,94232.00
2023-03-10T23:23:43.624Z,94255.59
2023-03-10T23:28:47.334Z,94282.66
2023-03-10T23:33:49.636Z,94280.50
2023-03-10T23:38:52.842Z,94301.44
2023-03-10T23:43:55.940Z,94318.59
2023-03-10T23:49:03.657Z,94311.09
2023-03-10T23:54:06.833Z,94301.94
2023-03-10T23:59:09.272Z,94317.34
